Time;durP1;ratioP1;P1;durP2;ratioP2;P2;SDS_P1;SDS_P2;PMS_P1;PMS_P2;Temp;Humidity;BMP_temperature;BMP_pressure;BME280_temperature;BME280_humidity;BME280_pressure;Samples;Min_cycle;Max_cycle;Signal;HPM_P1;HPM_P2
2022/11/22 00:00:09;;;;;;;54.85;24.27;;;;;;;;;;4946243;28;20317;-59
2022/11/22 00:02:35;;;;;;;57.83;23.75;;;;;;;;;;4946498;28;20341;-60
2022/11/22 00:05:02;;;;;;;75.60;27.60;;;;;;;;;;4948497;28;20365;-61
2022/11/22 00:07:27;;;;;;;84.25;32.83;;;;;;;;;;4950867;28;20466;-60
2022/11/22 00:09:53;;;;;;;131.25;45.90;;;;;;;;;;4950584;28;20480;-60
2022/11/22 00:12:18;;;;;;;103.30;37.60;;;;;;;;;;4936747;28;20500;-60
2022/11/22 00:14:44;;;;;;;63.53;26.48;;;;;;;;;;4930509;28;20077;-60
2022/11/22 00:17:09;;;;;;;51.38;22.63;;;;;;;;;;4930505;28;20468;-60
2022/11/22 00:19:38;;;;;;;56.75;23.13;;;;;;;;;;4931477;28;20053;-60
2022/11/22 00:22:06;;;;;;;51.15;22.75;;;;;;;;;;4931404;28;20052;-60
2022/11/22 00:24:32;;;;;;;47.58;19.67;;;;;;;;;;4931720;28;20482;-59
2022/11/22 00:26:58;;;;;;;51.85;22.25;;;;;;;;;;4931091;28;20088;-60
2022/11/22 00:29:23;;;;;;;52.40;24.35;;;;;;;;;;4872808;28;20519;-62
2022/11/22 00:31:49;;;;;;;47.30;21.92;;;;;;;;;;4930371;28;20073;-60
2022/11/22 00:34:14;;;;;;;54.65;20.98;;;;;;;;;;4931374;28;20452;-60
2022/11/22 00:36:40;;;;;;;48.28;21.17;;;;;;;;;;4930638;28;20052;-61
2022/11/22 00:39:05;;;;;;;51.33;21.35;;;;;;;;;;4930977;28;20069;-60
2022/11/22 00:41:31;;;;;;;62.10;23.13;;;;;;;;;;4930402;28;20437;-61
2022/11/22 00:43:56;;;;;;;64.93;26.48;;;;;;;;;;4930150;28;20456;-61
2022/11/22 00:46:23;;;;;;;57.67;23.80;;;;;;;;;;4930098;28;20372;-60
2022/11/22 00:48:48;;;;;;;48.97;20.45;;;;;;;;;;4931359;28;20496;-60
2022/11/22 00:51:14;;;;;;;47.05;20.95;;;;;;;;;;4930525;28;20420;-60
2022/11/22 00:53:39;;;;;;;48.42;21.13;;;;;;;;;;4930222;28;20285;-60
2022/11/22 00:56:05;;;;;;;58.10;23.70;;;;;;;;;;4931903;28;20372;-59
2022/11/22 00:58:30;;;;;;;55.95;22.73;;;;;;;;;;4929949;28;20429;-60
2022/11/22 01:00:56;;;;;;;49.50;21.02;;;;;;;;;;4924814;28;20038;-60
2022/11/22 01:03:22;;;;;;;48.70;21.85;;;;;;;;;;4901727;28;20458;-61
2022/11/22 01:05:47;;;;;;;56.25;21.20;;;;;;;;;;4911167;28;20501;-60
2022/11/22 01:08:12;;;;;;;42.15;18.98;;;;;;;;;;4910683;28;20477;-60
2022/11/22 01:10:38;;;;;;;47.80;20.42;;;;;;;;;;4910684;28;20457;-61
2022/11/22 01:13:05;;;;;;;147.70;58.00;;;;;;;;;;4910661;28;20130;-60
2022/11/22 01:15:31;;;;;;;181.48;64.57;;;;;;;;;;4910365;28;20061;-62
2022/11/22 01:17:57;;;;;;;120.78;44.17;;;;;;;;;;4910514;28;20345;-60
2022/11/22 01:20:23;;;;;;;79.15;30.90;;;;;;;;;;4910692;28;20057;-60
2022/11/22 01:22:49;;;;;;;35.72;16.98;;;;;;;;;;4910506;28;20414;-60
2022/11/22 01:25:14;;;;;;;26.48;14.88;;;;;;;;;;4910289;28;20357;-60
2022/11/22 01:27:40;;;;;;;30.77;16.10;;;;;;;;;;4910668;28;20535;-60
2022/11/22 01:30:06;;;;;;;29.30;14.40;;;;;;;;;;4910272;28;20456;-60
2022/11/22 01:32:32;;;;;;;33.72;16.50;;;;;;;;;;4912092;28;20338;-60
2022/11/22 01:34:57;;;;;;;36.22;15.30;;;;;;;;;;4911835;28;20077;-60
2022/11/22 01:37:23;;;;;;;25.75;14.43;;;;;;;;;;4910403;28;20090;-60
2022/11/22 01:39:48;;;;;;;29.80;14.93;;;;;;;;;;4910353;28;20435;-60
2022/11/22 01:42:14;;;;;;;29.85;14.93;;;;;;;;;;4911420;28;20480;-60
2022/11/22 01:44:42;;;;;;;25.10;12.80;;;;;;;;;;4910079;28;20473;-60
2022/11/22 01:47:23;;;;;;;24.50;13.23;;;;;;;;;;4910266;28;20057;-60
2022/11/22 01:50:00;;;;;;;20.10;11.68;;;;;;;;;;4910083;28;20417;-61
2022/11/22 01:52:30;;;;;;;26.17;14.02;;;;;;;;;;4892750;28;20173;-60
2022/11/22 01:55:06;;;;;;;22.65;13.18;;;;;;;;;;4892894;28;20058;-60
2022/11/22 01:57:35;;;;;;;19.65;11.85;;;;;;;;;;4909538;28;20501;-60
2022/11/22 02:00:08;;;;;;;18.08;11.35;;;;;;;;;;4893212;28;20421;-59
2022/11/22 02:02:34;;;;;;;16.98;10.98;;;;;;;;;;4910242;28;20466;-60
2022/11/22 02:05:09;;;;;;;21.35;10.88;;;;;;;;;;4892853;28;20035;-60
2022/11/22 02:07:46;;;;;;;23.67;12.68;;;;;;;;;;4893025;28;20357;-60
2022/11/22 02:10:15;;;;;;;18.65;11.38;;;;;;;;;;4892504;28;20397;-60
2022/11/22 02:12:41;;;;;;;20.73;12.93;;;;;;;;;;4919172;28;20516;-61
2022/11/22 02:15:07;;;;;;;27.65;14.13;;;;;;;;;;4929355;28;20460;-60
2022/11/22 02:17:33;;;;;;;22.98;12.98;;;;;;;;;;4928978;28;20369;-61
2022/11/22 02:19:58;;;;;;;20.52;11.80;;;;;;;;;;4928620;28;20480;-59
2022/11/22 02:22:50;;;;;;;21.33;11.48;;;;;;;;;;4928552;28;20326;-60
2022/11/22 02:25:28;;;;;;;23.80;11.32;;;;;;;;;;4929765;28;20433;-60
2022/11/22 02:27:55;;;;;;;18.40;9.90;;;;;;;;;;4928920;28;20034;-59
2022/11/22 02:30:21;;;;;;;18.42;9.75;;;;;;;;;;4929248;28;20511;-60
2022/11/22 02:32:46;;;;;;;15.43;9.40;;;;;;;;;;4928502;28;20453;-60
2022/11/22 02:35:24;;;;;;;17.67;9.27;;;;;;;;;;4929169;28;20397;-60
2022/11/22 02:37:57;;;;;;;18.10;10.85;;;;;;;;;;4928183;28;20472;-59
2022/11/22 02:40:24;;;;;;;16.65;9.02;;;;;;;;;;4926532;28;20468;-61
2022/11/22 02:42:58;;;;;;;11.98;8.20;;;;;;;;;;4926917;28;20030;-60
2022/11/22 02:45:23;;;;;;;12.63;8.18;;;;;;;;;;4928780;28;20053;-60
2022/11/22 02:47:49;;;;;;;14.75;8.85;;;;;;;;;;4928093;28;20034;-60
2022/11/22 02:50:14;;;;;;;16.33;8.73;;;;;;;;;;4928109;28;20425;-60
2022/11/22 02:52:40;;;;;;;17.90;10.00;;;;;;;;;;4927886;28;20354;-60
2022/11/22 02:55:06;;;;;;;18.23;9.15;;;;;;;;;;4927679;28;20477;-61
2022/11/22 02:57:31;;;;;;;16.42;9.38;;;;;;;;;;4927958;28;20441;-60
2022/11/22 02:59:57;;;;;;;16.40;9.13;;;;;;;;;;4928446;28;20084;-60
2022/11/22 03:02:22;;;;;;;12.93;8.13;;;;;;;;;;4928145;28;20322;-60
2022/11/22 03:04:48;;;;;;;14.60;8.60;;;;;;;;;;4927912;28;20526;-61
2022/11/22 03:07:13;;;;;;;13.60;8.10;;;;;;;;;;4927668;28;20030;-59
2022/11/22 03:09:39;;;;;;;13.25;8.45;;;;;;;;;;4927582;28;20376;-60
2022/11/22 03:12:04;;;;;;;16.05;9.00;;;;;;;;;;4917737;28;20457;-60
2022/11/22 03:14:30;;;;;;;16.58;9.60;;;;;;;;;;4909164;28;20097;-60
2022/11/22 03:16:55;;;;;;;17.00;8.73;;;;;;;;;;4908900;28;20049;-60
2022/11/22 03:19:21;;;;;;;14.50;8.18;;;;;;;;;;4908927;28;20444;-60
2022/11/22 03:21:47;;;;;;;15.18;8.73;;;;;;;;;;4910156;28;20033;-59
2022/11/22 03:24:13;;;;;;;14.77;7.93;;;;;;;;;;4908057;28;20496;-60
2022/11/22 03:26:38;;;;;;;13.05;7.18;;;;;;;;;;4908253;28;20319;-59
2022/11/22 03:29:04;;;;;;;16.08;8.38;;;;;;;;;;4909577;28;20417;-59
2022/11/22 03:31:30;;;;;;;15.35;8.02;;;;;;;;;;4908590;28;20520;-60
2022/11/22 03:33:56;;;;;;;13.50;8.57;;;;;;;;;;4908457;28;20326;-60
2022/11/22 03:36:22;;;;;;;11.25;7.80;;;;;;;;;;4908750;28;20031;-60
2022/11/22 03:38:47;;;;;;;13.55;6.93;;;;;;;;;;4909585;28;20452;-60
2022/11/22 03:41:13;;;;;;;11.13;6.40;;;;;;;;;;4907907;28;20483;-61
2022/11/22 03:43:38;;;;;;;11.35;6.63;;;;;;;;;;4908502;28;20034;-61
2022/11/22 03:46:04;;;;;;;10.15;6.35;;;;;;;;;;4908429;28;20419;-60
2022/11/22 03:48:30;;;;;;;11.88;6.60;;;;;;;;;;4907984;28;20524;-60
2022/11/22 03:51:05;;;;;;;12.85;6.95;;;;;;;;;;4907926;28;20034;-60
2022/11/22 03:53:31;;;;;;;11.93;6.55;;;;;;;;;;4907790;28;20342;-59
2022/11/22 03:55:57;;;;;;;11.52;7.30;;;;;;;;;;4909143;28;20378;-59
2022/11/22 03:58:23;;;;;;;9.68;6.53;;;;;;;;;;4909373;28;20192;-60
2022/11/22 04:00:48;;;;;;;11.07;6.85;;;;;;;;;;4908342;28;20381;-59
2022/11/22 04:03:14;;;;;;;11.60;6.50;;;;;;;;;;4907968;28;20485;-61
2022/11/22 04:05:39;;;;;;;10.40;5.95;;;;;;;;;;4907919;28;20097;-60
2022/11/22 04:08:04;;;;;;;9.10;5.72;;;;;;;;;;4907697;28;20524;-60
2022/11/22 04:10:30;;;;;;;9.73;5.57;;;;;;;;;;4908013;28;20047;-59
2022/11/22 04:12:57;;;;;;;10.82;5.72;;;;;;;;;;4909247;28;20477;-60
2022/11/22 04:15:23;;;;;;;10.73;5.65;;;;;;;;;;4909180;28;20414;-61
2022/11/22 04:17:48;;;;;;;8.77;6.03;;;;;;;;;;4907913;28;20430;-60
2022/11/22 04:23:07;;;;;;;11.68;6.82;;;;;;;;;;4908567;28;20066;-63
2022/11/22 04:25:35;;;;;;;10.13;5.63;;;;;;;;;;4908333;28;20469;-60
2022/11/22 04:28:01;;;;;;;11.68;5.30;;;;;;;;;;4908585;28;20089;-60
2022/11/22 04:33:13;;;;;;;12.73;6.50;;;;;;;;;;4907901;28;20500;-60
2022/11/22 04:35:40;;;;;;;10.40;6.35;;;;;;;;;;4909240;28;20674;-60
2022/11/22 04:38:06;;;;;;;13.00;7.13;;;;;;;;;;4909407;28;20158;-60
2022/11/22 04:40:32;;;;;;;12.52;7.55;;;;;;;;;;4908123;28;20510;-60
2022/11/22 04:45:43;;;;;;;14.43;8.30;;;;;;;;;;4908829;28;20065;-60
2022/11/22 04:48:11;;;;;;;13.80;6.97;;;;;;;;;;4907509;28;20027;-61
2022/11/22 04:53:22;;;;;;;16.02;9.27;;;;;;;;;;4912382;28;20496;-60
2022/11/22 04:55:48;;;;;;;18.33;8.88;;;;;;;;;;4911442;28;20445;-60
2022/11/22 04:58:14;;;;;;;13.77;8.57;;;;;;;;;;4911405;28;20358;-62
2022/11/22 05:00:40;;;;;;;14.90;8.45;;;;;;;;;;4912224;28;20422;-60
2022/11/22 05:03:06;;;;;;;11.32;6.60;;;;;;;;;;4910697;28;20106;-60
2022/11/22 05:05:38;;;;;;;14.13;8.48;;;;;;;;;;4910907;28;20053;-60
2022/11/22 05:08:05;;;;;;;18.85;9.48;;;;;;;;;;4834115;28;20283;-60
2022/11/22 05:10:55;;;;;;;18.48;10.90;;;;;;;;;;4758870;28;20522;-60
2022/11/22 05:13:18;;;;;;;66.03;26.50;;;;;;;;;;4911685;28;20408;-60
2022/11/22 05:15:43;;;;;;;40.65;17.45;;;;;;;;;;4910839;28;20516;-60
2022/11/22 05:18:09;;;;;;;20.40;9.98;;;;;;;;;;4910256;28;20461;-60
2022/11/22 05:20:35;;;;;;;15.43;7.93;;;;;;;;;;4911303;28;20109;-60
2022/11/22 05:25:45;;;;;;;20.38;10.68;;;;;;;;;;4912083;28;20204;-60
2022/11/22 05:28:10;;;;;;;28.85;13.35;;;;;;;;;;4911646;28;20038;-60
2022/11/22 05:30:39;;;;;;;30.00;13.65;;;;;;;;;;4910368;28;20350;-60
2022/11/22 05:33:05;;;;;;;27.80;9.68;;;;;;;;;;4910311;28;20118;-59
2022/11/22 05:35:30;;;;;;;20.10;8.13;;;;;;;;;;4909970;28;20511;-60
2022/11/22 05:37:57;;;;;;;13.40;6.68;;;;;;;;;;4910160;28;20457;-60
2022/11/22 05:40:22;;;;;;;19.13;8.60;;;;;;;;;;4910488;28;20414;-61
2022/11/22 05:42:48;;;;;;;22.13;10.70;;;;;;;;;;4910527;28;20482;-61
2022/11/22 05:45:13;;;;;;;14.10;6.88;;;;;;;;;;4910145;28;20062;-60
2022/11/22 05:47:39;;;;;;;16.92;8.68;;;;;;;;;;4910185;28;20397;-60
2022/11/22 05:50:05;;;;;;;17.33;8.57;;;;;;;;;;4909820;28;20482;-60
2022/11/22 05:52:31;;;;;;;13.10;7.85;;;;;;;;;;4909872;28;20434;-60
2022/11/22 05:54:56;;;;;;;13.65;7.50;;;;;;;;;;4910376;28;20363;-60
2022/11/22 05:57:22;;;;;;;15.73;7.90;;;;;;;;;;4911341;28;20038;-60
2022/11/22 05:59:47;;;;;;;15.43;9.48;;;;;;;;;;4911773;28;20467;-60
2022/11/22 06:02:12;;;;;;;16.13;8.57;;;;;;;;;;4909251;28;20398;-60
2022/11/22 06:04:38;;;;;;;17.17;9.02;;;;;;;;;;4909638;28;20097;-60
2022/11/22 06:07:03;;;;;;;14.02;8.02;;;;;;;;;;4909720;28;20350;-60
2022/11/22 06:09:29;;;;;;;11.43;6.82;;;;;;;;;;4907873;28;20075;-60
2022/11/22 06:11:54;;;;;;;15.35;8.10;;;;;;;;;;4909308;28;20046;-61
2022/11/22 06:14:20;;;;;;;36.42;20.45;;;;;;;;;;4852458;28;20344;-60
2022/11/22 06:16:45;;;;;;;25.85;14.48;;;;;;;;;;4909266;28;20454;-60
2022/11/22 06:19:11;;;;;;;15.85;9.88;;;;;;;;;;4909019;28;20053;-60
2022/11/22 06:21:37;;;;;;;17.77;9.85;;;;;;;;;;4909944;28;20440;-60
2022/11/22 06:24:03;;;;;;;21.95;9.65;;;;;;;;;;4909709;28;20512;-60
2022/11/22 06:26:28;;;;;;;18.42;9.43;;;;;;;;;;4910190;28;20459;-60
2022/11/22 06:28:54;;;;;;;17.05;8.15;;;;;;;;;;4909254;28;20465;-60
2022/11/22 06:31:23;;;;;;;13.98;7.63;;;;;;;;;;4909219;28;20031;-60
2022/11/22 06:33:49;;;;;;;13.30;6.88;;;;;;;;;;4909048;28;20483;-59
2022/11/22 06:36:21;;;;;;;14.50;7.13;;;;;;;;;;4911049;28;20322;-60
2022/11/22 06:38:46;;;;;;;15.77;8.02;;;;;;;;;;4909547;28;20342;-61
2022/11/22 06:41:19;;;;;;;17.60;8.68;;;;;;;;;;4909582;28;20061;-60
2022/11/22 06:43:46;;;;;;;19.05;9.13;;;;;;;;;;4911070;28;20330;-61
2022/11/22 06:46:13;;;;;;;16.23;8.63;;;;;;;;;;4908719;28;20480;-60
2022/11/22 06:48:40;;;;;;;18.10;9.27;;;;;;;;;;4908571;28;20472;-60
2022/11/22 06:51:12;;;;;;;15.88;7.95;;;;;;;;;;4909414;28;20484;-60
2022/11/22 06:53:38;;;;;;;12.98;7.07;;;;;;;;;;4909216;28;20096;-61
2022/11/22 06:56:07;;;;;;;14.10;7.85;;;;;;;;;;4909019;28;20456;-60
2022/11/22 06:58:33;;;;;;;17.50;8.30;;;;;;;;;;4908588;28;20393;-60
2022/11/22 07:01:06;;;;;;;18.90;8.85;;;;;;;;;;4908530;28;20401;-59
2022/11/22 07:03:34;;;;;;;20.23;9.23;;;;;;;;;;4908522;28;20428;-60
2022/11/22 07:06:00;;;;;;;18.20;8.65;;;;;;;;;;4909290;28;20318;-60
2022/11/22 07:08:25;;;;;;;11.77;6.68;;;;;;;;;;4909034;28;20373;-60
2022/11/22 07:10:51;;;;;;;9.93;5.88;;;;;;;;;;4908996;28;20354;-60
2022/11/22 07:13:17;;;;;;;10.75;6.38;;;;;;;;;;4908519;28;20540;-61
2022/11/22 07:15:42;;;;;;;12.30;6.88;;;;;;;;;;4909628;28;20392;-60
2022/11/22 07:18:08;;;;;;;10.50;6.68;;;;;;;;;;4907873;28;20039;-60
2022/11/22 07:20:33;;;;;;;11.02;6.97;;;;;;;;;;4909165;28;20451;-60
2022/11/22 07:22:58;;;;;;;11.15;6.05;;;;;;;;;;4908987;28;20398;-60
2022/11/22 07:25:24;;;;;;;12.95;6.85;;;;;;;;;;4909337;28;20027;-60
2022/11/22 07:27:52;;;;;;;12.30;6.97;;;;;;;;;;4908392;28;20042;-59
2022/11/22 07:30:18;;;;;;;11.25;6.60;;;;;;;;;;4909981;28;20337;-60
2022/11/22 07:32:47;;;;;;;11.05;6.53;;;;;;;;;;4907812;28;20035;-60
2022/11/22 07:35:13;;;;;;;15.23;8.82;;;;;;;;;;4908921;28;20512;-59
2022/11/22 07:37:38;;;;;;;18.13;9.02;;;;;;;;;;4908355;28;20575;-61
2022/11/22 07:40:05;;;;;;;16.38;9.48;;;;;;;;;;4908120;28;20398;-59
2022/11/22 07:42:30;;;;;;;16.02;8.30;;;;;;;;;;4907955;28;20450;-60
2022/11/22 07:44:55;;;;;;;13.13;6.38;;;;;;;;;;4906833;28;20471;-61
2022/11/22 07:47:21;;;;;;;11.88;7.03;;;;;;;;;;4908255;28;20093;-59
2022/11/22 07:49:46;;;;;;;10.63;6.22;;;;;;;;;;4907992;28;20057;-60
2022/11/22 07:52:12;;;;;;;8.07;5.53;;;;;;;;;;4908261;28;20350;-60
2022/11/22 07:54:37;;;;;;;8.13;5.00;;;;;;;;;;4908300;28;20035;-61
2022/11/22 07:57:03;;;;;;;7.75;4.80;;;;;;;;;;4908146;28;20405;-60
2022/11/22 07:59:28;;;;;;;9.13;5.90;;;;;;;;;;4907999;28;20451;-60
2022/11/22 08:01:54;;;;;;;10.23;6.05;;;;;;;;;;4907870;28;20462;-61
2022/11/22 08:04:19;;;;;;;11.43;5.72;;;;;;;;;;4907595;28;20525;-60
2022/11/22 08:06:45;;;;;;;10.57;6.68;;;;;;;;;;4907808;28;20511;-59
2022/11/22 08:09:10;;;;;;;8.75;5.53;;;;;;;;;;4908210;28;20406;-59
2022/11/22 08:11:36;;;;;;;9.52;6.22;;;;;;;;;;4907575;28;20496;-60
2022/11/22 08:14:02;;;;;;;10.73;5.10;;;;;;;;;;4907562;28;20453;-60
2022/11/22 08:16:27;;;;;;;14.18;6.20;;;;;;;;;;4907601;28;20511;-60
2022/11/22 08:18:53;;;;;;;10.23;5.07;;;;;;;;;;4907508;28;20437;-59
2022/11/22 08:21:18;;;;;;;9.50;5.30;;;;;;;;;;4908046;28;20501;-60
2022/11/22 08:23:45;;;;;;;9.20;5.70;;;;;;;;;;4907743;28;20101;-60
2022/11/22 08:26:15;;;;;;;8.52;5.18;;;;;;;;;;4909395;28;20477;-61
2022/11/22 08:28:42;;;;;;;9.13;5.10;;;;;;;;;;4911144;28;20674;-60
2022/11/22 08:31:13;;;;;;;6.97;4.05;;;;;;;;;;4911027;28;20053;-59
2022/11/22 08:33:39;;;;;;;9.20;4.90;;;;;;;;;;4910799;28;20504;-60
2022/11/22 08:36:05;;;;;;;9.23;4.55;;;;;;;;;;4911258;28;20061;-60
2022/11/22 08:38:31;;;;;;;8.52;5.00;;;;;;;;;;4911128;28;20532;-61
2022/11/22 08:40:56;;;;;;;11.10;5.57;;;;;;;;;;4911272;28;20543;-60
2022/11/22 08:43:22;;;;;;;6.07;3.80;;;;;;;;;;4910877;28;20508;-60
2022/11/22 08:45:54;;;;;;;7.22;4.22;;;;;;;;;;4911335;28;20441;-61
2022/11/22 08:48:20;;;;;;;8.88;5.13;;;;;;;;;;4910901;28;20477;-60
2022/11/22 08:50:54;;;;;;;8.07;4.45;;;;;;;;;;4911142;28;20465;-60
2022/11/22 08:53:20;;;;;;;7.45;4.05;;;;;;;;;;4910940;28;20331;-61
2022/11/22 08:55:46;;;;;;;7.47;4.82;;;;;;;;;;4911124;28;20396;-60
2022/11/22 08:58:11;;;;;;;11.35;5.20;;;;;;;;;;4863560;28;122235;-60
2022/11/22 09:00:37;;;;;;;11.45;5.43;;;;;;;;;;4892395;29;20345;-60
2022/11/22 09:03:03;;;;;;;8.80;4.90;;;;;;;;;;4891538;29;20426;-59
2022/11/22 09:05:30;;;;;;;7.88;4.50;;;;;;;;;;4892023;28;20350;-60
2022/11/22 09:07:56;;;;;;;9.65;4.90;;;;;;;;;;4892986;29;20071;-60
2022/11/22 09:10:22;;;;;;;10.27;6.25;;;;;;;;;;4891358;29;20333;-60
2022/11/22 09:12:47;;;;;;;7.15;4.63;;;;;;;;;;4919016;28;20389;-59
2022/11/22 09:15:14;;;;;;;9.82;5.38;;;;;;;;;;4929498;28;20605;-60
2022/11/22 09:17:41;;;;;;;9.20;5.05;;;;;;;;;;4930931;28;20357;-60
2022/11/22 09:20:07;;;;;;;8.40;4.53;;;;;;;;;;4929861;28;20437;-60
2022/11/22 09:22:33;;;;;;;7.53;4.70;;;;;;;;;;4929516;28;20521;-60
2022/11/22 09:24:59;;;;;;;9.38;5.20;;;;;;;;;;4930281;28;20445;-60
2022/11/22 09:27:24;;;;;;;31.20;12.95;;;;;;;;;;4929285;28;20434;-60
2022/11/22 09:29:50;;;;;;;16.17;10.35;;;;;;;;;;4929706;28;20475;-59
2022/11/22 09:32:15;;;;;;;175.48;56.50;;;;;;;;;;4896215;28;20465;-61
2022/11/22 09:34:41;;;;;;;183.98;70.38;;;;;;;;;;4929579;28;20330;-61
2022/11/22 09:37:06;;;;;;;202.25;94.95;;;;;;;;;;4928484;28;20418;-60
2022/11/22 09:39:31;;;;;;;50.53;23.52;;;;;;;;;;4925995;28;20051;-60
2022/11/22 09:42:09;;;;;;;23.23;13.55;;;;;;;;;;4930272;28;20360;-60
2022/11/22 09:45:02;;;;;;;21.27;10.20;;;;;;;;;;4929854;28;20034;-60
2022/11/22 09:47:55;;;;;;;31.17;14.18;;;;;;;;;;4906559;28;20042;-59
2022/11/22 09:50:44;;;;;;;58.08;24.92;;;;;;;;;;4936859;28;20038;-60
2022/11/22 09:53:27;;;;;;;24.08;11.27;;;;;;;;;;4927708;28;20105;-60
2022/11/22 09:55:58;;;;;;;43.15;15.95;;;;;;;;;;4930036;28;20038;-60
2022/11/22 09:58:32;;;;;;;12.88;6.80;;;;;;;;;;4927208;28;20441;-60
2022/11/22 10:01:10;;;;;;;20.10;10.70;;;;;;;;;;4928340;28;20433;-60
2022/11/22 10:03:53;;;;;;;40.20;15.43;;;;;;;;;;4929093;28;20349;-60
2022/11/22 10:06:35;;;;;;;12.68;6.88;;;;;;;;;;4928877;28;20531;-59
2022/11/22 10:09:38;;;;;;;12.27;6.65;;;;;;;;;;4928687;28;20409;-61
2022/11/22 10:12:24;;;;;;;19.92;10.18;;;;;;;;;;4918889;28;20527;-60
2022/11/22 10:15:10;;;;;;;20.98;8.77;;;;;;;;;;4926877;28;20349;-60
2022/11/22 10:17:52;;;;;;;15.95;7.78;;;;;;;;;;4928950;28;20050;-61
2022/11/22 10:20:29;;;;;;;20.30;10.20;;;;;;;;;;4928784;28;20404;-60
2022/11/22 10:22:56;;;;;;;22.05;11.05;;;;;;;;;;4928323;28;20365;-60
2022/11/22 10:25:47;;;;;;;19.35;9.57;;;;;;;;;;4928184;28;20046;-60
2022/11/22 10:28:36;;;;;;;11.48;5.97;;;;;;;;;;4928081;28;20441;-60
2022/11/22 10:31:13;;;;;;;15.40;8.00;;;;;;;;;;4928188;28;20470;-60
2022/11/22 10:33:46;;;;;;;12.00;6.60;;;;;;;;;;4928397;28;20380;-60
2022/11/22 10:36:36;;;;;;;14.82;6.35;;;;;;;;;;4927007;28;20502;-60
2022/11/22 10:39:30;;;;;;;15.88;7.78;;;;;;;;;;4926643;28;20417;-60
2022/11/22 10:42:56;;;;;;;31.58;13.18;;;;;;;;;;4928059;28;20483;-60
2022/11/22 10:45:35;;;;;;;33.05;12.57;;;;;;;;;;4893105;28;20392;-60
2022/11/22 10:48:19;;;;;;;36.67;13.75;;;;;;;;;;4928700;28;20356;-60
2022/11/22 10:51:17;;;;;;;26.90;12.13;;;;;;;;;;4926473;28;20408;-60
2022/11/22 10:54:15;;;;;;;12.55;6.45;;;;;;;;;;4926736;28;20393;-60
2022/11/22 10:56:52;;;;;;;27.80;12.57;;;;;;;;;;4925977;28;20445;-60
2022/11/22 10:59:55;;;;;;;22.88;10.93;;;;;;;;;;4925787;28;20360;-60
2022/11/22 11:02:39;;;;;;;31.67;10.60;;;;;;;;;;4929903;28;20455;-60
2022/11/22 11:05:09;;;;;;;81.70;24.42;;;;;;;;;;4927213;28;20492;-61
2022/11/22 11:07:40;;;;;;;161.05;42.08;;;;;;;;;;4926650;28;20557;-60
2022/11/22 11:10:27;;;;;;;36.25;11.20;;;;;;;;;;4926251;28;20038;-60
2022/11/22 11:13:01;;;;;;;21.33;7.43;;;;;;;;;;4927353;28;20445;-61
2022/11/22 11:15:43;;;;;;;78.45;21.27;;;;;;;;;;4927483;28;20599;-60
2022/11/22 11:18:20;;;;;;;64.15;18.52;;;;;;;;;;4928293;28;20484;-63
2022/11/22 11:20:47;;;;;;;99.45;26.63;;;;;;;;;;4927642;28;20380;-60
2022/11/22 11:23:13;;;;;;;80.32;23.15;;;;;;;;;;4927379;28;20340;-60
2022/11/22 11:25:42;;;;;;;74.93;21.02;;;;;;;;;;4927070;28;20476;-60
2022/11/22 11:28:26;;;;;;;77.22;23.52;;;;;;;;;;4928829;28;20448;-60
2022/11/22 11:31:08;;;;;;;78.18;20.35;;;;;;;;;;4927850;28;20049;-60
2022/11/22 11:33:37;;;;;;;55.00;17.63;;;;;;;;;;4927580;28;20396;-60
2022/11/22 11:36:09;;;;;;;32.25;11.48;;;;;;;;;;4927428;28;20389;-61
2022/11/22 11:38:40;;;;;;;28.27;9.85;;;;;;;;;;4927551;28;20417;-60
2022/11/22 11:41:17;;;;;;;99.78;28.27;;;;;;;;;;4927982;28;20365;-61
2022/11/22 11:43:43;;;;;;;59.30;18.85;;;;;;;;;;4926980;28;20507;-60
2022/11/22 11:46:26;;;;;;;19.83;7.53;;;;;;;;;;4927699;28;20385;-60
2022/11/22 11:49:15;;;;;;;75.65;21.55;;;;;;;;;;4928985;28;20049;-60
2022/11/22 11:51:44;;;;;;;94.50;26.48;;;;;;;;;;4927028;28;20034;-60
2022/11/22 11:54:17;;;;;;;42.92;13.90;;;;;;;;;;4927313;28;20390;-60
2022/11/22 11:57:03;;;;;;;58.72;17.90;;;;;;;;;;4927908;28;20393;-60
2022/11/22 11:59:37;;;;;;;74.35;20.17;;;;;;;;;;4927202;28;20462;-60
2022/11/22 12:02:09;;;;;;;49.00;14.13;;;;;;;;;;4931201;28;20373;-60
2022/11/22 12:04:57;;;;;;;33.85;11.98;;;;;;;;;;4931618;28;20472;-60
2022/11/22 12:07:38;;;;;;;43.83;13.80;;;;;;;;;;4929747;28;20469;-60
2022/11/22 12:10:25;;;;;;;74.25;20.45;;;;;;;;;;4930836;28;20461;-60
2022/11/22 12:12:55;;;;;;;32.75;10.63;;;;;;;;;;4918587;28;20365;-60
2022/11/22 12:15:39;;;;;;;58.42;15.43;;;;;;;;;;4894710;28;20370;-61
2022/11/22 12:18:42;;;;;;;18.40;7.22;;;;;;;;;;4895741;28;20448;-60
2022/11/22 12:21:31;;;;;;;24.40;8.43;;;;;;;;;;4896061;28;20481;-60
2022/11/22 12:24:48;;;;;;;37.92;13.13;;;;;;;;;;4910902;28;20471;-60
2022/11/22 12:27:14;;;;;;;54.17;18.27;;;;;;;;;;4911424;28;20053;-60
2022/11/22 12:29:43;;;;;;;47.30;16.48;;;;;;;;;;4913136;28;20026;-60
2022/11/22 12:32:28;;;;;;;25.98;9.80;;;;;;;;;;4911897;28;20501;-61
2022/11/22 12:35:06;;;;;;;86.40;25.85;;;;;;;;;;4911661;28;20419;-60
2022/11/22 12:38:04;;;;;;;74.38;22.13;;;;;;;;;;4911895;28;20527;-60
2022/11/22 12:40:42;;;;;;;35.08;13.55;;;;;;;;;;4911068;28;20087;-60
2022/11/22 12:43:18;;;;;;;25.85;10.40;;;;;;;;;;4893913;28;20353;-61
2022/11/22 12:45:51;;;;;;;51.90;19.35;;;;;;;;;;4911525;28;20397;-60
2022/11/22 12:48:35;;;;;;;89.63;23.33;;;;;;;;;;4894213;28;20477;-60
2022/11/22 12:51:20;;;;;;;39.53;13.13;;;;;;;;;;4893804;28;20369;-61
2022/11/22 12:53:46;;;;;;;27.92;10.82;;;;;;;;;;4893598;28;20417;-60
2022/11/22 12:56:39;;;;;;;57.63;18.80;;;;;;;;;;4911027;28;20464;-60
2022/11/22 12:59:24;;;;;;;40.25;15.05;;;;;;;;;;4912833;28;20393;-60
2022/11/22 13:02:30;;;;;;;63.25;21.08;;;;;;;;;;4894495;28;20652;-61
2022/11/22 13:05:10;;;;;;;50.53;19.83;;;;;;;;;;4910676;28;20042;-60
2022/11/22 13:07:51;;;;;;;50.33;19.20;;;;;;;;;;4911281;28;20355;-60
2022/11/22 13:10:41;;;;;;;55.50;23.30;;;;;;;;;;4911354;28;20393;-62
2022/11/22 13:13:35;;;;;;;58.78;24.00;;;;;;;;;;4918023;28;20047;-61
2022/11/22 13:16:06;;;;;;;24.30;12.65;;;;;;;;;;4928296;28;20693;-60
2022/11/22 13:18:47;;;;;;;17.40;9.10;;;;;;;;;;4928986;28;20034;-61
2022/11/22 13:21:48;;;;;;;32.03;16.13;;;;;;;;;;4928220;28;20464;-60
2022/11/22 13:24:35;;;;;;;29.58;11.40;;;;;;;;;;4928220;28;20433;-61
2022/11/22 13:27:33;;;;;;;19.30;10.25;;;;;;;;;;4929125;28;20026;-61
2022/11/22 13:30:01;;;;;;;23.70;11.57;;;;;;;;;;4927877;28;20449;-60
2022/11/22 13:32:32;;;;;;;18.60;10.68;;;;;;;;;;4929330;28;20388;-62
2022/11/22 13:35:09;;;;;;;20.80;11.85;;;;;;;;;;4929512;28;20511;-60
2022/11/22 13:37:43;;;;;;;20.50;11.32;;;;;;;;;;4929271;28;20464;-60
2022/11/22 13:40:14;;;;;;;35.60;17.35;;;;;;;;;;4929781;28;20468;-60
2022/11/22 13:42:41;;;;;;;24.15;13.85;;;;;;;;;;4930995;28;20380;-60
2022/11/22 13:45:22;;;;;;;24.15;12.32;;;;;;;;;;4928413;28;20469;-59
2022/11/22 13:47:48;;;;;;;22.02;12.93;;;;;;;;;;4928671;28;20353;-60
2022/11/22 13:50:38;;;;;;;22.77;13.27;;;;;;;;;;4928054;28;20034;-60
2022/11/22 13:53:28;;;;;;;21.27;11.57;;;;;;;;;;4928738;28;20368;-60
2022/11/22 13:55:56;;;;;;;25.92;12.65;;;;;;;;;;4929629;28;20338;-60
2022/11/22 13:58:24;;;;;;;22.33;11.90;;;;;;;;;;4929893;28;20092;-60
2022/11/22 14:00:58;;;;;;;25.25;14.23;;;;;;;;;;4929069;28;20469;-60
2022/11/22 14:03:39;;;;;;;27.08;14.98;;;;;;;;;;4928852;28;20337;-60
2022/11/22 14:06:23;;;;;;;35.05;18.05;;;;;;;;;;4928502;28;20345;-61
2022/11/22 14:09:31;;;;;;;34.72;17.65;;;;;;;;;;4929674;28;20342;-61
2022/11/22 14:12:03;;;;;;;37.88;19.08;;;;;;;;;;4923972;28;20465;-61
2022/11/22 14:15:22;;;;;;;28.50;13.73;;;;;;;;;;4910340;28;20417;-60
2022/11/22 14:18:39;;;;;;;20.10;10.55;;;;;;;;;;4910137;28;20397;-61
2022/11/22 14:21:43;;;;;;;21.42;11.70;;;;;;;;;;4909667;28;20346;-60
2022/11/22 14:24:46;;;;;;;28.27;13.90;;;;;;;;;;4909919;28;20444;-60
2022/11/22 14:27:59;;;;;;;34.60;18.23;;;;;;;;;;4909377;28;20058;-60
2022/11/22 14:30:52;;;;;;;32.70;17.08;;;;;;;;;;4909345;28;20042;-60
2022/11/22 14:33:21;;;;;;;27.48;14.20;;;;;;;;;;4909033;28;20441;-60
2022/11/22 14:36:05;;;;;;;28.45;13.93;;;;;;;;;;4910053;28;20469;-61
2022/11/22 14:38:42;;;;;;;65.45;25.92;;;;;;;;;;4911062;28;20057;-61
2022/11/22 14:41:41;;;;;;;37.67;19.52;;;;;;;;;;4860410;28;20386;-60
2022/11/22 14:44:16;;;;;;;32.03;16.75;;;;;;;;;;4794144;28;20357;-60
2022/11/22 14:47:01;;;;;;;24.40;11.95;;;;;;;;;;4892567;28;20776;-61
2022/11/22 14:49:44;;;;;;;32.35;17.00;;;;;;;;;;4844501;28;20457;-60
2022/11/22 14:52:24;;;;;;;175.27;64.63;;;;;;;;;;4910172;28;20358;-60
2022/11/22 14:54:55;;;;;;;83.50;24.08;;;;;;;;;;4910391;28;20035;-60
2022/11/22 14:57:26;;;;;;;63.72;23.00;;;;;;;;;;4909165;28;20035;-60
2022/11/22 15:00:17;;;;;;;70.68;23.27;;;;;;;;;;4891639;28;20466;-60
2022/11/22 15:03:27;;;;;;;101.07;40.05;;;;;;;;;;4908649;28;20353;-60
2022/11/22 15:06:36;;;;;;;58.83;24.73;;;;;;;;;;4909035;28;20034;-60